Time;durP1;ratioP1;P1;durP2;ratioP2;P2;SDS_P1;SDS_P2;PMS_P1;PMS_P2;Temp;Humidity;BMP_temperature;BMP_pressure;BME280_temperature;BME280_humidity;BME280_pressure;Samples;Min_cycle;Max_cycle;Signal;HPM_P1;HPM_P2
2022/01/20 00:03:32;;;;;;;6.47;3.83;;;6.70;58.60;;;;;;5046955;28;20021;-88
2022/01/20 00:27:39;;;;;;;3.90;3.40;;;6.70;59.00;;;;;;5062454;28;20039;-86
2022/01/20 00:35:23;;;;;;;4.80;3.38;;;6.70;59.00;;;;;;5046280;28;20082;-86
2022/01/20 00:37:49;;;;;;;4.78;3.45;;;6.80;59.00;;;;;;5042603;28;20036;-87
2022/01/20 00:40:16;;;;;;;4.75;3.30;;;6.80;59.20;;;;;;5040587;28;20029;-86
2022/01/20 00:42:42;;;;;;;3.53;3.08;;;6.70;59.10;;;;;;5043584;28;20090;-85
2022/01/20 00:45:09;;;;;;;4.10;3.25;;;6.80;59.10;;;;;;5059136;28;20033;-86
2022/01/20 00:47:35;;;;;;;4.25;3.10;;;6.80;59.20;;;;;;5060820;28;20040;-87
2022/01/20 00:50:01;;;;;;;5.50;3.33;;;6.80;59.20;;;;;;5041836;28;20037;-84
2022/01/20 00:52:27;;;;;;;3.85;3.13;;;6.80;59.20;;;;;;5043243;28;20543;-86
2022/01/20 00:54:53;;;;;;;4.85;3.25;;;6.70;59.20;;;;;;5026052;28;20035;-84
2022/01/20 00:57:20;;;;;;;4.30;3.47;;;6.80;59.30;;;;;;5044998;28;20119;-85
2022/01/20 00:59:46;;;;;;;4.38;2.97;;;6.80;59.20;;;;;;5026227;28;20131;-84
2022/01/20 01:02:12;;;;;;;4.25;3.70;;;6.80;59.30;;;;;;5042181;28;20514;-86
2022/01/20 01:04:41;;;;;;;4.35;3.30;;;6.80;59.20;;;;;;5042946;28;20395;-86
2022/01/20 01:07:28;;;;;;;4.70;3.25;;;6.80;59.20;;;;;;5045210;28;20441;-87
2022/01/20 01:09:55;;;;;;;4.32;3.28;;;6.80;59.20;;;;;;5046683;28;20097;-82
2022/01/20 01:12:32;;;;;;;3.88;3.03;;;6.80;59.20;;;;;;5062499;28;20487;-86
2022/01/20 01:15:00;;;;;;;6.63;3.50;;;6.80;59.30;;;;;;5044292;28;20037;-86
2022/01/20 01:22:29;;;;;;;4.30;3.40;;;6.80;59.50;;;;;;5053231;28;20032;-83
2022/01/20 01:24:57;;;;;;;4.68;3.47;;;6.80;59.40;;;;;;5057026;28;20032;-88
2022/01/20 01:27:27;;;;;;;5.63;3.13;;;6.80;59.40;;;;;;5034694;28;20032;-87
2022/01/20 01:32:31;;;;;;;4.35;3.05;;;6.80;59.50;;;;;;5067977;28;20097;-87
2022/01/20 01:35:00;;;;;;;5.55;3.50;;;6.80;59.50;;;;;;5063946;28;20029;-88
2022/01/20 01:39:59;;;;;;;6.70;3.50;;;6.80;59.50;;;;;;5045811;28;20033;-87
2022/01/20 01:42:32;;;;;;;5.18;3.85;;;6.80;59.50;;;;;;5040618;28;20391;-83
2022/01/20 01:45:14;;;;;;;4.63;3.30;;;6.80;59.60;;;;;;5046468;28;20037;-87
2022/01/20 01:47:40;;;;;;;5.53;2.85;;;6.80;59.50;;;;;;5051276;28;20506;-87
2022/01/20 01:50:07;;;;;;;3.90;3.10;;;6.80;59.50;;;;;;5024128;28;20032;-85
2022/01/20 01:52:33;;;;;;;4.60;3.15;;;6.80;59.50;;;;;;5047626;28;20052;-87
2022/01/20 01:55:00;;;;;;;5.13;3.13;;;6.80;59.60;;;;;;5026810;28;20028;-86
2022/01/20 01:57:27;;;;;;;4.38;3.17;;;6.80;59.60;;;;;;5028555;28;20052;-86
2022/01/20 01:59:54;;;;;;;4.72;3.05;;;6.80;59.60;;;;;;5034410;28;20491;-87
2022/01/20 02:02:42;;;;;;;4.95;3.25;;;6.80;59.60;;;;;;5066574;28;20028;-88
2022/01/20 02:05:14;;;;;;;3.22;2.90;;;6.90;59.60;;;;;;5032901;28;20049;-86
2022/01/20 02:18:52;;;;;;;4.32;3.10;;;6.90;59.90;;;;;;5062787;28;20031;-87
2022/01/20 02:21:45;;;;;;;4.50;3.35;;;6.90;59.90;;;;;;5070146;28;20035;-87
2022/01/20 02:24:11;;;;;;;4.15;3.13;;;6.90;59.90;;;;;;5045312;28;20039;-87
2022/01/20 02:26:37;;;;;;;4.25;3.10;;;6.90;59.90;;;;;;5050480;28;20058;-87
2022/01/20 02:29:04;;;;;;;4.18;3.00;;;6.90;59.80;;;;;;5048252;28;20063;-87
2022/01/20 02:31:30;;;;;;;7.00;3.30;;;6.90;59.90;;;;;;5051941;28;20087;-87
2022/01/20 02:33:58;;;;;;;4.72;3.40;;;6.90;60.00;;;;;;5045517;28;20056;-87
2022/01/20 02:36:25;;;;;;;4.80;3.10;;;6.90;60.00;;;;;;5049463;28;20471;-87
2022/01/20 02:39:05;;;;;;;3.30;2.95;;;6.90;60.00;;;;;;5044181;28;20147;-88
2022/01/20 02:47:11;;;;;;;4.20;2.97;;;6.90;60.00;;;;;;5047137;28;20029;-87
2022/01/20 02:49:37;;;;;;;4.53;3.50;;;6.90;60.10;;;;;;5063225;28;20042;-84
2022/01/20 02:52:03;;;;;;;4.30;3.35;;;6.90;60.10;;;;;;5032217;28;20135;-88
2022/01/20 02:54:29;;;;;;;4.53;3.53;;;6.90;60.10;;;;;;5032336;28;20087;-86
2022/01/20 02:56:55;;;;;;;4.68;3.17;;;6.90;60.00;;;;;;5041175;28;20573;-88
2022/01/20 02:59:21;;;;;;;5.10;3.30;;;6.90;60.10;;;;;;5027000;28;20031;-88
2022/01/20 03:01:47;;;;;;;4.07;2.88;;;6.90;60.00;;;;;;5026639;28;20491;-88
2022/01/20 03:04:13;;;;;;;6.88;3.90;;;6.90;60.10;;;;;;5043885;28;20048;-86
2022/01/20 03:06:39;;;;;;;4.60;3.20;;;6.90;60.10;;;;;;5027656;28;20036;-87
2022/01/20 03:09:06;;;;;;;5.55;3.70;;;6.90;60.10;;;;;;5046936;28;20028;-88
2022/01/20 03:11:32;;;;;;;4.45;3.22;;;6.90;60.10;;;;;;5060132;28;20101;-87
2022/01/20 03:13:59;;;;;;;5.43;3.72;;;6.90;60.10;;;;;;5054998;28;20060;-87
2022/01/20 03:16:25;;;;;;;7.13;3.80;;;6.90;60.10;;;;;;5042743;28;21424;-83
2022/01/20 03:18:50;;;;;;;5.85;3.90;;;6.90;60.10;;;;;;5049372;28;20029;-87
2022/01/20 03:21:16;;;;;;;5.47;3.20;;;6.90;60.10;;;;;;5035531;28;20088;-86
2022/01/20 03:23:42;;;;;;;5.82;3.40;;;6.90;60.00;;;;;;5055337;28;20028;-85
2022/01/20 03:26:08;;;;;;;6.13;4.07;;;6.90;60.10;;;;;;5066755;28;20043;-81
2022/01/20 03:28:34;;;;;;;5.35;3.80;;;6.90;60.20;;;;;;5061010;28;20119;-85
2022/01/20 03:31:01;;;;;;;5.75;3.78;;;6.90;60.20;;;;;;5050871;28;20032;-85
2022/01/20 03:33:26;;;;;;;5.05;3.72;;;6.90;60.30;;;;;;5062784;28;20550;-83
2022/01/20 03:35:53;;;;;;;3.88;3.33;;;6.90;60.20;;;;;;5025839;28;20131;-84
2022/01/20 03:38:45;;;;;;;6.45;4.07;;;6.90;60.20;;;;;;5057337;28;20522;-83
2022/01/20 03:41:12;;;;;;;5.80;3.17;;;6.90;60.30;;;;;;5059525;28;20131;-83
2022/01/20 03:43:38;;;;;;;6.70;3.55;;;7.00;60.40;;;;;;5043346;28;20119;-82
2022/01/20 03:46:11;;;;;;;6.32;3.85;;;7.00;60.40;;;;;;5030447;28;20094;-82
2022/01/20 03:48:49;;;;;;;6.85;3.55;;;7.00;60.40;;;;;;5029056;28;20369;-83
2022/01/20 03:51:20;;;;;;;4.70;3.40;;;7.00;60.40;;;;;;5030560;28;20094;-83
2022/01/20 03:53:48;;;;;;;6.53;4.13;;;7.00;60.50;;;;;;5025789;28;20036;-83
2022/01/20 03:56:15;;;;;;;6.05;3.70;;;7.00;60.50;;;;;;5043806;28;20025;-83
2022/01/20 03:58:51;;;;;;;13.88;4.07;;;7.00;60.50;;;;;;5043132;28;20029;-83
2022/01/20 04:01:18;;;;;;;7.13;4.05;;;7.00;60.50;;;;;;5025712;28;20055;-83
2022/01/20 04:04:13;;;;;;;5.70;3.92;;;6.90;60.50;;;;;;5033113;28;20040;-80
2022/01/20 04:06:50;;;;;;;4.75;3.53;;;7.00;60.50;;;;;;5038371;28;20029;-82
2022/01/20 04:09:16;;;;;;;5.15;3.47;;;7.00;60.50;;;;;;5041129;28;20127;-82
2022/01/20 04:11:42;;;;;;;5.60;3.53;;;6.90;60.50;;;;;;5043110;28;20561;-84
2022/01/20 04:14:12;;;;;;;5.38;3.53;;;7.00;60.60;;;;;;5025122;28;20028;-81
2022/01/20 04:19:24;;;;;;;6.97;3.97;;;7.00;60.60;;;;;;5044513;28;20034;-83
2022/01/20 04:21:50;;;;;;;6.60;3.70;;;7.00;60.60;;;;;;5041661;28;20029;-85
2022/01/20 04:24:16;;;;;;;5.78;3.53;;;7.00;60.60;;;;;;5041615;28;20025;-84
2022/01/20 04:26:44;;;;;;;4.28;3.17;;;7.00;60.50;;;;;;5039935;28;20090;-84
2022/01/20 04:29:13;;;;;;;4.70;3.50;;;7.00;60.50;;;;;;5087016;28;20033;-85
2022/01/20 04:31:40;;;;;;;5.22;4.00;;;7.00;60.50;;;;;;5055698;28;20040;-84
2022/01/20 04:34:07;;;;;;;5.35;3.95;;;7.00;60.60;;;;;;5022937;28;20029;-82
2022/01/20 04:36:37;;;;;;;6.53;3.33;;;7.00;60.50;;;;;;5025672;28;20040;-83
2022/01/20 04:39:07;;;;;;;6.50;3.90;;;7.00;60.50;;;;;;5029339;28;20029;-84
2022/01/20 04:41:34;;;;;;;5.78;3.42;;;7.00;60.50;;;;;;5060899;28;20513;-82
2022/01/20 04:44:07;;;;;;;5.28;3.65;;;7.00;60.40;;;;;;5044977;28;21411;-82
2022/01/20 04:46:59;;;;;;;5.70;3.60;;;7.00;60.50;;;;;;5043072;28;20095;-82
2022/01/20 04:57:53;;;;;;;5.53;3.70;;;7.00;60.60;;;;;;4965110;28;20533;-84
2022/01/20 05:00:19;;;;;;;5.50;3.55;;;7.00;60.60;;;;;;5042587;28;20039;-83
2022/01/20 05:03:05;;;;;;;8.52;4.68;;;7.00;60.40;;;;;;5066221;28;20043;-83
2022/01/20 05:05:33;;;;;;;6.15;3.80;;;7.00;60.40;;;;;;5047893;28;20047;-83
2022/01/20 05:08:06;;;;;;;5.88;3.50;;;7.00;60.50;;;;;;5047477;28;20040;-83
2022/01/20 05:10:34;;;;;;;7.13;4.05;;;7.00;60.50;;;;;;5050786;28;20094;-83
2022/01/20 05:13:08;;;;;;;7.10;4.00;;;7.00;60.40;;;;;;5039591;28;20134;-83
2022/01/20 05:15:34;;;;;;;7.03;3.42;;;7.00;60.50;;;;;;5032616;28;20047;-90
2022/01/20 05:18:01;;;;;;;5.60;3.95;;;7.10;60.60;;;;;;5033886;28;20123;-89
2022/01/20 05:20:28;;;;;;;5.72;3.58;;;7.10;60.60;;;;;;5047226;28;20116;-87
2022/01/20 05:22:54;;;;;;;6.18;3.70;;;7.10;60.70;;;;;;5046983;28;20109;-87
2022/01/20 05:25:23;;;;;;;5.95;3.88;;;7.00;60.60;;;;;;5038498;28;20388;-88
2022/01/20 05:27:49;;;;;;;5.85;3.65;;;7.10;60.80;;;;;;5050814;28;20040;-86
2022/01/20 05:30:16;;;;;;;5.95;3.90;;;7.10;60.90;;;;;;5073647;28;20043;-85
2022/01/20 05:33:08;;;;;;;6.20;3.90;;;7.00;60.80;;;;;;5052938;28;20046;-83
2022/01/20 05:35:35;;;;;;;7.53;4.07;;;7.00;61.00;;;;;;5031374;28;20440;-87
2022/01/20 05:38:01;;;;;;;5.22;3.80;;;7.10;61.20;;;;;;5009496;28;20623;-86
2022/01/20 05:40:28;;;;;;;7.13;4.15;;;7.10;61.30;;;;;;5027679;28;20033;-88
2022/01/20 05:42:54;;;;;;;7.40;4.15;;;7.10;61.40;;;;;;5028406;28;20107;-89
2022/01/20 05:45:20;;;;;;;6.75;3.92;;;7.10;61.60;;;;;;5008671;28;20093;-87
2022/01/20 05:47:48;;;;;;;6.07;3.90;;;7.10;61.70;;;;;;5018530;28;20409;-86
2022/01/20 05:50:34;;;;;;;8.13;4.57;;;7.10;61.90;;;;;;5023290;28;20034;-88
2022/01/20 05:53:02;;;;;;;6.18;3.75;;;7.10;62.00;;;;;;5008872;28;20022;-87
2022/01/20 05:55:28;;;;;;;8.30;4.20;;;7.10;62.00;;;;;;5005595;28;20123;-88
2022/01/20 05:57:54;;;;;;;5.70;4.13;;;7.10;62.10;;;;;;5034885;28;20514;-86
2022/01/20 06:00:23;;;;;;;6.68;4.05;;;7.10;62.10;;;;;;5022775;28;20113;-85
2022/01/20 06:05:42;;;;;;;7.45;4.40;;;7.10;62.30;;;;;;5029554;28;20060;-85
2022/01/20 06:08:12;;;;;;;6.85;4.32;;;7.10;62.30;;;;;;5007172;28;20038;-87
2022/01/20 06:10:38;;;;;;;7.68;4.50;;;7.10;62.20;;;;;;5039684;28;20063;-87
2022/01/20 06:13:25;;;;;;;6.50;4.45;;;7.10;62.00;;;;;;5048905;28;20032;-90
2022/01/20 06:15:51;;;;;;;7.53;4.45;;;7.10;61.90;;;;;;5035814;28;20033;-92
2022/01/20 06:18:18;;;;;;;8.20;4.97;;;7.10;61.90;;;;;;5055776;28;20028;-93
2022/01/20 06:20:52;;;;;;;7.43;4.60;;;7.10;61.80;;;;;;5043121;28;20020;-91
2022/01/20 06:23:20;;;;;;;8.35;4.57;;;7.10;61.70;;;;;;5053152;28;20028;-95
2022/01/20 06:25:46;;;;;;;8.45;4.30;;;7.10;62.20;;;;;;5041783;28;20090;-93
2022/01/20 06:28:13;;;;;;;6.93;4.43;;;7.10;61.60;;;;;;5055582;28;20044;-91
2022/01/20 06:30:40;;;;;;;9.18;5.00;;;7.10;61.70;;;;;;5072613;28;20032;-93
2022/01/20 06:33:07;;;;;;;8.43;4.32;;;7.10;61.70;;;;;;5380699;22;20056;-83
2022/01/20 06:35:54;;;;;;;9.50;4.90;;;7.10;61.90;;;;;;5032614;28;20052;-86
2022/01/20 06:38:22;;;;;;;6.72;4.43;;;7.10;61.80;;;;;;5034236;28;20144;-81
2022/01/20 06:40:49;;;;;;;8.77;4.75;;;7.10;61.90;;;;;;5063478;28;20037;-89
2022/01/20 06:43:16;;;;;;;6.75;4.72;;;7.10;61.90;;;;;;5045041;28;20033;-88
2022/01/20 06:45:42;;;;;;;9.50;4.90;;;7.10;61.80;;;;;;5031591;28;20045;-84
2022/01/20 06:48:12;;;;;;;11.02;4.28;;;7.10;61.90;;;;;;5023964;28;20049;-94
2022/01/20 06:50:56;;;;;;;8.23;4.88;;;7.10;61.80;;;;;;5050345;28;20061;-92
2022/01/20 06:53:22;;;;;;;7.88;4.68;;;7.20;61.80;;;;;;5050422;28;20044;-92
2022/01/20 06:55:48;;;;;;;8.95;4.78;;;7.10;61.70;;;;;;5054943;28;20044;-91
2022/01/20 06:58:14;;;;;;;7.93;4.90;;;7.10;61.70;;;;;;5039026;28;20033;-86
2022/01/20 07:00:40;;;;;;;6.85;4.88;;;7.20;61.80;;;;;;5016768;28;20028;-89
2022/01/20 07:03:06;;;;;;;6.15;4.05;;;7.20;61.90;;;;;;5056810;28;20030;-92
2022/01/20 07:05:34;;;;;;;9.90;4.80;;;7.10;61.70;;;;;;5049946;28;20124;-94
2022/01/20 07:08:00;;;;;;;9.80;5.28;;;7.20;61.80;;;;;;5035714;28;20056;-94
2022/01/20 07:10:27;;;;;;;7.07;4.53;;;7.10;61.70;;;;;;5049320;28;20030;-89
2022/01/20 07:18:25;;;;;;;8.15;4.38;;;7.20;61.60;;;;;;5583521;23;19968;-89
2022/01/20 07:20:51;;;;;;;10.70;5.40;;;7.20;61.60;;;;;;4979362;28;20027;-95
2022/01/20 07:23:40;;;;;;;8.52;4.63;;;7.20;61.60;;;;;;4981952;28;20128;-96
2022/01/20 07:26:09;;;;;;;7.47;4.88;;;7.20;61.60;;;;;;4981756;28;20038;-90
2022/01/20 07:28:42;;;;;;;11.13;5.38;;;7.20;61.60;;;;;;4980880;28;20056;-88
2022/01/20 07:31:08;;;;;;;8.73;5.15;;;7.20;61.50;;;;;;4982818;28;20176;-91
2022/01/20 07:33:35;;;;;;;10.25;5.50;;;7.20;61.50;;;;;;4980284;28;20654;-91
2022/01/20 07:36:01;;;;;;;9.63;4.75;;;7.20;61.50;;;;;;4978891;28;20832;-81
2022/01/20 07:38:27;;;;;;;9.05;5.50;;;7.20;61.40;;;;;;5041204;23;20085;-81
2022/01/20 07:40:54;;;;;;;8.35;5.05;;;7.20;61.40;;;;;;5007036;28;20027;-83
2022/01/20 07:43:20;;;;;;;7.95;5.47;;;7.20;61.40;;;;;;5009283;28;20029;-83
2022/01/20 07:45:54;;;;;;;10.18;5.57;;;7.20;61.30;;;;;;5080416;23;20046;-82
2022/01/20 07:48:23;;;;;;;7.13;4.70;;;7.20;61.20;;;;;;5005389;28;20058;-83
2022/01/20 07:50:56;;;;;;;9.23;5.20;;;7.20;61.30;;;;;;5003976;28;20038;-84
2022/01/20 07:53:27;;;;;;;9.55;5.18;;;7.20;61.20;;;;;;4981989;28;20587;-92
2022/01/20 07:55:53;;;;;;;8.90;5.03;;;7.20;61.20;;;;;;4979339;28;20042;-91
2022/01/20 07:58:22;;;;;;;8.13;4.97;;;7.20;61.20;;;;;;5003614;28;20034;-85
2022/01/20 08:00:48;;;;;;;10.68;4.68;;;7.20;61.10;;;;;;4982092;28;20045;-88
2022/01/20 08:05:50;;;;;;;9.18;5.13;;;7.20;61.00;;;;;;5087294;23;20043;-86
2022/01/20 08:14:13;;;;;;;8.07;5.03;;;7.20;60.70;;;;;;5102002;23;20365;-94
2022/01/20 08:16:40;;;;;;;9.63;5.65;;;7.20;60.70;;;;;;4969491;23;20052;-93
2022/01/20 08:19:08;;;;;;;8.68;5.15;;;7.20;60.60;;;;;;4934152;29;20097;-91
2022/01/20 08:21:35;;;;;;;9.50;5.47;;;7.20;60.60;;;;;;4917248;29;20587;-92
2022/01/20 08:24:02;;;;;;;11.05;5.88;;;7.20;60.50;;;;;;4931371;29;20127;-90
2022/01/20 08:29:25;;;;;;;8.45;5.30;;;7.20;60.40;;;;;;5479527;23;20915;-88
2022/01/20 08:31:52;;;;;;;8.45;4.80;;;7.20;60.40;;;;;;4983273;23;20054;-87
2022/01/20 08:34:30;;;;;;;10.82;5.70;;;7.20;60.50;;;;;;4938513;28;20030;-90
2022/01/20 08:37:14;;;;;;;9.52;5.88;;;7.30;60.70;;;;;;4953426;28;20058;-89
2022/01/20 08:39:41;;;;;;;8.52;5.43;;;7.20;60.80;;;;;;4936957;28;20035;-92
2022/01/20 08:42:08;;;;;;;9.27;5.80;;;7.20;61.00;;;;;;4937908;28;20036;-88
2022/01/20 08:44:36;;;;;;;10.50;5.88;;;7.30;61.00;;;;;;4974865;28;20027;-84
2022/01/20 08:47:06;;;;;;;11.15;5.82;;;7.20;61.00;;;;;;4975431;28;20019;-87
2022/01/20 08:49:32;;;;;;;10.48;6.30;;;7.30;61.00;;;;;;4959819;28;20046;-91
2022/01/20 08:52:00;;;;;;;10.75;5.65;;;7.20;60.90;;;;;;4971380;28;20039;-90
2022/01/20 08:54:30;;;;;;;10.27;5.85;;;7.20;60.90;;;;;;4972108;28;20034;-87
2022/01/20 08:57:08;;;;;;;9.52;5.50;;;7.30;60.90;;;;;;4957411;28;20590;-90
2022/01/20 08:59:34;;;;;;;10.65;5.97;;;7.30;60.80;;;;;;4967497;28;20498;-93
2022/01/20 09:02:00;;;;;;;9.73;6.10;;;7.30;60.90;;;;;;4967069;28;20024;-92
2022/01/20 09:04:26;;;;;;;10.15;5.38;;;7.30;60.70;;;;;;4950511;28;20042;-90
2022/01/20 09:07:12;;;;;;;9.85;5.72;;;7.20;60.70;;;;;;4951214;28;20067;-93
2022/01/20 09:09:43;;;;;;;9.70;5.63;;;7.30;60.70;;;;;;4936064;28;20071;-92
2022/01/20 09:17:27;;;;;;;9.73;5.25;;;7.30;60.50;;;;;;4950591;28;20059;-92
2022/01/20 09:19:53;;;;;;;8.85;5.20;;;7.30;60.40;;;;;;4953198;28;20031;-93
2022/01/20 09:22:20;;;;;;;12.40;5.45;;;7.30;60.40;;;;;;4959466;28;20098;-92
2022/01/20 09:24:47;;;;;;;9.95;4.93;;;7.30;60.40;;;;;;4934905;28;20027;-92
2022/01/20 09:27:14;;;;;;;9.88;5.32;;;7.30;60.40;;;;;;4933343;28;20031;-95
2022/01/20 09:29:41;;;;;;;7.45;5.22;;;7.30;60.40;;;;;;4951366;28;20027;-93
2022/01/20 09:32:12;;;;;;;8.07;5.22;;;7.30;60.40;;;;;;4935550;28;20047;-91
2022/01/20 09:34:39;;;;;;;8.40;5.43;;;7.30;60.40;;;;;;4960558;28;20042;-94
2022/01/20 09:37:07;;;;;;;7.15;4.78;;;7.30;60.20;;;;;;4934523;28;20039;-94
2022/01/20 09:39:39;;;;;;;7.85;5.07;;;7.30;60.20;;;;;;4936581;28;20034;-91
2022/01/20 09:42:15;;;;;;;7.65;5.00;;;7.30;60.10;;;;;;4951750;28;20031;-91
2022/01/20 09:44:47;;;;;;;8.27;4.88;;;7.30;60.20;;;;;;4948569;28;20023;-82
2022/01/20 09:47:18;;;;;;;8.57;5.57;;;7.30;60.10;;;;;;4960407;28;20028;-86
2022/01/20 09:49:54;;;;;;;9.40;5.20;;;7.30;60.00;;;;;;4975628;28;20031;-82
2022/01/20 09:52:27;;;;;;;7.97;5.15;;;7.30;60.00;;;;;;4971969;28;20095;-87
2022/01/20 09:55:06;;;;;;;10.18;5.35;;;7.30;60.00;;;;;;4971578;28;20054;-88
2022/01/20 09:57:32;;;;;;;10.85;5.60;;;7.30;60.00;;;;;;4971027;28;20030;-89
2022/01/20 10:00:00;;;;;;;8.07;5.15;;;7.30;60.00;;;;;;4964327;28;20032;-93
2022/01/20 10:02:26;;;;;;;7.72;5.20;;;7.30;60.00;;;;;;4935903;28;20161;-91
2022/01/20 10:04:56;;;;;;;9.35;5.50;;;7.40;60.00;;;;;;4953030;28;20031;-93
2022/01/20 10:07:34;;;;;;;8.43;4.93;;;7.30;59.90;;;;;;4939732;28;20046;-94
2022/01/20 10:10:08;;;;;;;8.00;4.85;;;7.30;59.90;;;;;;4950004;28;20035;-93
2022/01/20 10:13:04;;;;;;;9.00;4.90;;;7.30;59.90;;;;;;4952724;28;20167;-91
2022/01/20 10:16:10;;;;;;;9.05;4.97;;;7.30;59.90;;;;;;4970321;28;20058;-89
2022/01/20 10:18:46;;;;;;;8.10;4.72;;;7.30;59.80;;;;;;4957255;28;20057;-92
2022/01/20 10:21:12;;;;;;;7.65;4.80;;;7.40;59.80;;;;;;4939427;28;20031;-93
2022/01/20 10:24:06;;;;;;;7.63;5.22;;;7.40;59.80;;;;;;4924278;29;20047;-92
2022/01/20 10:26:42;;;;;;;9.23;5.35;;;7.40;59.80;;;;;;4911821;29;21519;-86
2022/01/20 10:29:10;;;;;;;7.72;4.78;;;7.40;59.80;;;;;;4920711;29;20058;-92
2022/01/20 10:31:40;;;;;;;8.45;4.65;;;7.30;59.70;;;;;;4927959;29;20051;-96
2022/01/20 10:34:35;;;;;;;6.95;4.30;;;7.30;59.70;;;;;;4908319;29;20040;-90
2022/01/20 10:37:25;;;;;;;7.75;4.18;;;7.40;59.70;;;;;;4919050;29;20644;-93
2022/01/20 10:40:10;;;;;;;7.53;4.75;;;7.30;59.60;;;;;;4908221;29;20047;-89
2022/01/20 10:42:42;;;;;;;8.30;4.75;;;7.30;59.70;;;;;;4932777;29;20087;-94
2022/01/20 10:45:21;;;;;;;7.63;4.82;;;7.30;59.70;;;;;;4908415;29;20046;-93
2022/01/20 10:47:54;;;;;;;6.57;4.40;;;7.40;59.70;;;;;;4922890;29;20091;-83
2022/01/20 10:50:28;;;;;;;7.60;4.88;;;7.40;59.60;;;;;;4920790;29;20184;-84
2022/01/20 10:53:19;;;;;;;6.93;4.32;;;7.40;59.60;;;;;;4943783;28;20023;-83
2022/01/20 10:55:45;;;;;;;8.80;5.30;;;7.40;59.60;;;;;;4922709;29;20075;-82
2022/01/20 10:58:23;;;;;;;8.20;5.05;;;7.40;59.50;;;;;;4925773;29;20088;-91
2022/01/20 11:00:53;;;;;;;8.03;4.70;;;7.40;59.50;;;;;;4953471;28;20066;-89
2022/01/20 11:03:22;;;;;;;7.70;5.05;;;7.40;59.40;;;;;;4962580;28;20101;-92
2022/01/20 11:05:51;;;;;;;8.35;5.07;;;7.40;59.50;;;;;;4955873;28;20042;-94
2022/01/20 11:08:29;;;;;;;6.95;4.45;;;7.40;59.50;;;;;;4956382;28;20037;-93
2022/01/20 11:10:57;;;;;;;7.63;4.50;;;7.40;59.40;;;;;;4939563;28;20118;-93
2022/01/20 11:13:47;;;;;;;7.82;4.68;;;7.40;59.40;;;;;;4945482;28;20039;-93
2022/01/20 11:16:13;;;;;;;8.52;5.07;;;7.40;59.40;;;;;;4954952;28;20030;-96
2022/01/20 11:18:42;;;;;;;6.88;4.60;;;7.40;59.40;;;;;;4959326;28;20023;-95
2022/01/20 11:21:08;;;;;;;7.05;4.60;;;7.40;59.40;;;;;;4936839;28;20058;-93
2022/01/20 11:23:42;;;;;;;9.63;4.88;;;7.40;59.40;;;;;;4943326;28;20069;-93
2022/01/20 11:26:27;;;;;;;7.95;5.30;;;7.40;59.40;;;;;;4957661;28;20093;-94
2022/01/20 11:29:00;;;;;;;6.18;5.10;;;7.40;59.40;;;;;;4958423;28;20035;-91
2022/01/20 11:31:52;;;;;;;8.25;5.57;;;7.40;59.40;;;;;;4956071;28;20042;-93
2022/01/20 11:34:37;;;;;;;9.32;5.38;;;7.40;59.40;;;;;;4959796;28;20066;-94
2022/01/20 11:37:08;;;;;;;8.30;5.00;;;7.40;59.40;;;;;;4956418;28;20039;-87
2022/01/20 11:39:34;;;;;;;8.93;5.68;;;7.40;59.40;;;;;;4959212;28;20034;-95
2022/01/20 11:42:00;;;;;;;9.85;5.88;;;7.40;59.40;;;;;;4958592;28;20031;-94
2022/01/20 11:44:29;;;;;;;8.32;5.43;;;7.40;59.40;;;;;;4953864;28;20043;-86
2022/01/20 11:47:06;;;;;;;9.90;5.55;;;7.40;59.40;;;;;;4954636;28;20042;-92
2022/01/20 11:49:43;;;;;;;7.65;5.10;;;7.40;59.40;;;;;;4957518;28;20039;-84
2022/01/20 11:52:09;;;;;;;9.35;5.85;;;7.40;59.40;;;;;;4972860;28;20023;-85
2022/01/20 11:54:45;;;;;;;8.10;5.53;;;7.40;59.40;;;;;;4988831;28;20035;-85
2022/01/20 11:57:31;;;;;;;10.65;5.85;;;7.40;59.40;;;;;;4970990;28;20043;-84
2022/01/20 12:00:00;;;;;;;9.50;5.82;;;7.40;59.40;;;;;;4959989;28;20017;-84
2022/01/20 12:02:29;;;;;;;9.32;5.70;;;7.40;59.40;;;;;;4974167;28;20125;-86
2022/01/20 12:05:00;;;;;;;8.73;6.22;;;7.40;59.40;;;;;;4966093;28;20075;-94
2022/01/20 12:07:40;;;;;;;8.25;5.90;;;7.40;59.40;;;;;;4952843;28;20056;-95
2022/01/20 12:10:10;;;;;;;8.73;5.95;;;7.40;59.40;;;;;;4953325;28;20187;-92
2022/01/20 12:12:38;;;;;;;8.15;5.35;;;7.40;59.40;;;;;;4953713;28;20043;-91
2022/01/20 12:15:10;;;;;;;8.63;6.00;;;7.50;59.40;;;;;;4953733;28;20134;-93
2022/01/20 12:17:41;;;;;;;10.52;6.03;;;7.40;59.40;;;;;;4947789;28;20047;-95
2022/01/20 12:20:10;;;;;;;11.15;6.38;;;7.40;59.40;;;;;;4953054;28;20046;-94
2022/01/20 12:22:44;;;;;;;9.13;6.18;;;7.40;59.30;;;;;;4952298;28;20050;-93
2022/01/20 12:25:17;;;;;;;10.02;6.22;;;7.40;59.30;;;;;;4935869;29;20074;-94
2022/01/20 12:27:44;;;;;;;9.35;5.80;;;7.50;59.40;;;;;;4949545;28;20138;-95
2022/01/20 12:30:24;;;;;;;11.32;6.75;;;7.40;59.30;;;;;;4937503;29;20720;-93
2022/01/20 12:33:02;;;;;;;9.32;6.05;;;7.50;59.30;;;;;;4951374;28;20045;-94
2022/01/20 12:35:41;;;;;;;8.75;6.20;;;7.40;59.30;;;;;;4939225;28;20039;-94
2022/01/20 12:38:27;;;;;;;9.43;6.50;;;7.40;59.30;;;;;;4938164;29;20253;-95
2022/01/20 12:41:05;;;;;;;9.25;6.43;;;7.40;59.30;;;;;;4937602;29;20506;-94
2022/01/20 12:43:40;;;;;;;8.30;5.93;;;7.50;59.30;;;;;;4938018;29;20062;-94
2022/01/20 12:46:12;;;;;;;9.65;6.60;;;7.40;59.30;;;;;;4936079;29;20039;-91
2022/01/20 12:48:39;;;;;;;8.82;6.20;;;7.40;59.20;;;;;;4957168;28;20039;-92
2022/01/20 12:51:09;;;;;;;8.80;6.05;;;7.40;59.20;;;;;;4940624;29;20040;-96
2022/01/20 12:53:44;;;;;;;8.82;5.95;;;7.40;59.20;;;;;;4947424;28;20020;-90
2022/01/20 12:56:13;;;;;;;8.63;5.97;;;7.40;59.20;;;;;;4957571;28;20039;-92
2022/01/20 12:58:50;;;;;;;8.05;5.65;;;7.40;59.20;;;;;;4957928;28;20024;-91
2022/01/20 13:01:16;;;;;;;8.07;5.90;;;7.50;59.20;;;;;;4967087;28;20045;-91
2022/01/20 13:03:43;;;;;;;9.73;5.97;;;7.40;59.10;;;;;;4956731;28;20054;-92
2022/01/20 13:06:19;;;;;;;9.07;6.15;;;7.50;59.20;;;;;;4951716;28;20039;-94
2022/01/20 13:09:13;;;;;;;7.57;5.35;;;7.40;59.10;;;;;;4940212;29;20043;-94
2022/01/20 13:11:44;;;;;;;11.60;6.03;;;7.40;59.00;;;;;;4939570;29;20031;-95
2022/01/20 13:14:12;;;;;;;8.93;5.65;;;7.40;59.10;;;;;;4943343;29;20051;-95
2022/01/20 13:16:55;;;;;;;8.57;5.68;;;7.50;59.10;;;;;;4937383;29;20043;-94
2022/01/20 13:19:36;;;;;;;8.48;5.25;;;7.50;59.00;;;;;;4944729;28;20035;-94
2022/01/20 13:22:24;;;;;;;9.40;6.05;;;7.50;59.10;;;;;;4941915;29;20063;-92
2022/01/20 13:24:50;;;;;;;8.95;6.25;;;7.50;59.10;;;;;;4956552;28;20028;-95
2022/01/20 13:27:17;;;;;;;9.82;6.07;;;7.50;59.00;;;;;;4943098;29;20129;-95
2022/01/20 13:29:49;;;;;;;8.65;5.75;;;7.40;59.00;;;;;;4954893;29;21108;-94
2022/01/20 13:32:16;;;;;;;10.02;5.88;;;7.50;59.10;;;;;;4960249;28;20047;-94
2022/01/20 13:34:54;;;;;;;9.20;6.10;;;7.40;59.00;;;;;;4942149;29;20034;-93
2022/01/20 13:37:20;;;;;;;8.70;5.60;;;7.40;59.00;;;;;;5244042;23;20066;-93
2022/01/20 13:39:49;;;;;;;9.45;6.32;;;7.50;59.00;;;;;;5163930;23;20542;-86
2022/01/20 13:42:28;;;;;;;8.50;5.07;;;7.50;59.20;;;;;;4927623;29;20091;-85
2022/01/20 13:45:15;;;;;;;10.25;5.50;;;7.50;61.80;;;;;;4935084;28;20074;-88
2022/01/20 13:47:50;;;;;;;10.07;6.00;;;7.60;63.00;;;;;;4945886;28;20039;-89
2022/01/20 13:50:32;;;;;;;8.55;5.47;;;7.60;63.60;;;;;;4936751;29;20519;-93
2022/01/20 13:53:00;;;;;;;10.23;5.90;;;7.70;63.70;;;;;;4943758;28;20047;-89
2022/01/20 13:55:29;;;;;;;8.38;5.93;;;7.70;63.70;;;;;;4908527;29;20035;-86
2022/01/20 13:57:57;;;;;;;10.05;6.35;;;7.80;63.50;;;;;;4950975;28;20099;-90
2022/01/20 14:00:26;;;;;;;10.43;5.97;;;7.90;63.30;;;;;;4954030;28;20087;-82
2022/01/20 14:02:52;;;;;;;8.90;5.88;;;7.90;63.40;;;;;;5408402;23;20023;-86
2022/01/20 14:05:20;;;;;;;10.88;6.65;;;7.90;63.30;;;;;;5140463;23;20286;-89
2022/01/20 14:07:47;;;;;;;11.98;7.88;;;8.00;63.20;;;;;;4955902;28;20063;-87
2022/01/20 14:10:14;;;;;;;15.90;9.05;;;8.00;61.40;;;;;;4941444;28;20509;-91
2022/01/20 14:12:40;;;;;;;15.18;8.68;;;8.00;59.70;;;;;;4943670;28;20032;-91
2022/01/20 14:15:06;;;;;;;13.60;8.57;;;7.90;58.60;;;;;;4945520;28;20127;-90
2022/01/20 14:17:36;;;;;;;14.30;9.48;;;7.80;57.70;;;;;;4930998;29;20035;-87
2022/01/20 14:20:13;;;;;;;15.23;9.23;;;7.60;57.40;;;;;;4949447;28;20042;-86
2022/01/20 14:22:39;;;;;;;14.25;8.82;;;7.50;57.40;;;;;;4946532;28;20028;-89
2022/01/20 14:25:07;;;;;;;16.13;9.80;;;7.40;56.90;;;;;;4935021;29;20023;-89
2022/01/20 14:27:33;;;;;;;13.55;8.80;;;7.40;57.00;;;;;;4928709;28;20443;-91
2022/01/20 14:30:00;;;;;;;15.20;9.55;;;7.30;56.80;;;;;;4944033;28;20388;-91
2022/01/20 14:32:26;;;;;;;17.42;9.45;;;7.20;56.90;;;;;;4942548;28;20046;-87
2022/01/20 14:34:52;;;;;;;14.57;9.57;;;7.10;56.70;;;;;;4927688;29;20139;-89
2022/01/20 14:37:18;;;;;;;17.48;9.60;;;7.10;56.70;;;;;;4931800;29;20528;-92
2022/01/20 14:39:44;;;;;;;15.88;9.93;;;7.00;56.70;;;;;;4937022;29;20047;-92
2022/01/20 14:42:14;;;;;;;17.23;10.23;;;7.00;56.80;;;;;;4928346;29;20066;-87
2022/01/20 14:44:43;;;;;;;15.98;10.30;;;6.90;56.80;;;;;;4945701;28;20469;-89
2022/01/20 14:47:09;;;;;;;19.77;11.13;;;6.80;56.70;;;;;;4947073;28;20039;-92